Time;durP1;ratioP1;P1;durP2;ratioP2;P2;SDS_P1;SDS_P2;PMS_P1;PMS_P2;Temp;Humidity;BMP_temperature;BMP_pressure;BME280_temperature;BME280_humidity;BME280_pressure;Samples;Min_cycle;Max_cycle;Signal;HPM_P1;HPM_P2
2022/06/11 00:01:41;;;;;;;0.20;0.20;;;17.30;99.90;;;;;;5114090;28;20169;-58
2022/06/11 00:04:10;;;;;;;0.25;0.25;;;17.40;99.90;;;;;;5113962;28;20204;-59
2022/06/11 00:06:41;;;;;;;0.22;0.20;;;17.40;99.90;;;;;;5112616;28;20220;-58
2022/06/11 00:09:08;;;;;;;0.35;0.35;;;17.40;99.90;;;;;;5113948;28;20672;-58
2022/06/11 00:11:34;;;;;;;0.20;0.20;;;17.40;99.90;;;;;;5114010;28;20638;-58
2022/06/11 00:14:00;;;;;;;0.30;0.30;;;17.40;99.90;;;;;;5113894;28;20215;-58
2022/06/11 00:16:27;;;;;;;0.30;0.30;;;17.40;99.90;;;;;;5113853;28;20165;-58
2022/06/11 00:18:55;;;;;;;0.20;0.20;;;17.40;99.90;;;;;;5113649;28;20180;-58
2022/06/11 00:21:24;;;;;;;0.40;0.40;;;17.40;99.90;;;;;;5113924;28;20198;-58
2022/06/11 00:23:50;;;;;;;0.30;0.30;;;17.40;99.90;;;;;;5113747;28;20205;-58
2022/06/11 00:26:16;;;;;;;0.45;0.45;;;17.40;99.90;;;;;;5112647;28;20634;-58
2022/06/11 00:28:43;;;;;;;0.20;0.20;;;17.40;99.90;;;;;;5113869;28;20702;-58
2022/06/11 00:31:10;;;;;;;0.10;0.10;;;17.50;99.90;;;;;;5120050;28;20177;-58
2022/06/11 00:33:37;;;;;;;0.20;0.20;;;17.40;99.90;;;;;;5120427;28;20169;-58
2022/06/11 00:36:05;;;;;;;0.10;0.10;;;17.40;99.90;;;;;;5120544;28;20173;-58
2022/06/11 00:38:31;;;;;;;0.17;0.13;;;17.40;99.90;;;;;;5120468;28;20572;-58
2022/06/11 00:40:57;;;;;;;0.60;0.50;;;17.50;99.90;;;;;;5119138;28;20514;-58
2022/06/11 00:43:27;;;;;;;0.10;0.10;;;17.40;99.90;;;;;;5120335;28;20212;-58
2022/06/11 00:46:34;;;;;;;0.10;0.10;;;17.40;99.90;;;;;;5120315;28;20602;-58
2022/06/11 00:49:01;;;;;;;0.17;0.15;;;17.50;99.90;;;;;;5105597;28;20280;-58
2022/06/11 00:51:27;;;;;;;0.20;0.20;;;17.60;99.90;;;;;;5120381;28;20260;-58
2022/06/11 00:53:59;;;;;;;0.20;0.20;;;17.60;99.90;;;;;;5120358;27;20212;-58
2022/06/11 00:56:33;;;;;;;0.10;0.10;;;17.70;99.90;;;;;;5120201;28;20176;-58
2022/06/11 00:59:01;;;;;;;0.17;0.17;;;17.70;99.90;;;;;;5120434;27;20242;-58
2022/06/11 01:01:29;;;;;;;0.10;0.10;;;17.70;99.90;;;;;;5120188;28;20169;-58
2022/06/11 01:03:58;;;;;;;0.10;0.10;;;17.70;99.90;;;;;;5120175;27;20242;-58
2022/06/11 01:06:24;;;;;;;0.13;0.13;;;17.70;99.90;;;;;;5120001;28;20664;-58
2022/06/11 01:08:52;;;;;;;0.10;0.10;;;17.80;99.90;;;;;;5120000;28;20169;-58
2022/06/11 01:11:24;;;;;;;0.17;0.17;;;17.80;99.90;;;;;;5120318;28;20177;-58
2022/06/11 01:14:17;;;;;;;0.10;0.10;;;17.80;99.90;;;;;;5118886;28;20180;-58
2022/06/11 01:17:17;;;;;;;0.15;0.15;;;17.80;99.90;;;;;;5118765;28;20230;-58
2022/06/11 01:20:21;;;;;;;0.10;0.10;;;17.80;99.90;;;;;;5119934;27;20193;-58
2022/06/11 01:23:11;;;;;;;0.00;0.00;;;17.90;99.90;;;;;;5120069;27;20221;-58
2022/06/11 01:25:58;;;;;;;0.13;0.10;;;17.80;99.90;;;;;;5119975;27;20203;-58
2022/06/11 01:28:49;;;;;;;0.10;0.10;;;17.80;99.90;;;;;;5120106;28;20248;-58
2022/06/11 01:31:41;;;;;;;0.22;0.22;;;17.70;99.90;;;;;;5120155;28;20197;-58
2022/06/11 01:34:33;;;;;;;0.10;0.10;;;17.80;99.90;;;;;;5120190;28;20168;-58
2022/06/11 01:37:07;;;;;;;0.10;0.10;;;17.80;99.90;;;;;;5120003;28;20312;-58
2022/06/11 01:39:44;;;;;;;0.10;0.10;;;17.80;99.90;;;;;;5119950;28;20204;-58
2022/06/11 01:42:15;;;;;;;0.25;0.05;;;17.80;99.90;;;;;;5115882;28;20162;-58
2022/06/11 01:44:45;;;;;;;0.25;0.25;;;17.80;99.90;;;;;;5116461;28;20554;-60
2022/06/11 01:47:14;;;;;;;0.30;0.30;;;17.80;99.90;;;;;;5116573;28;20653;-58
2022/06/11 01:49:47;;;;;;;0.25;0.22;;;17.80;99.90;;;;;;5098308;28;20533;-58
2022/06/11 01:52:31;;;;;;;0.40;0.40;;;17.80;99.90;;;;;;5116510;28;20204;-58
2022/06/11 01:55:19;;;;;;;0.10;0.10;;;17.70;99.90;;;;;;5116433;28;20224;-58
2022/06/11 01:58:03;;;;;;;0.05;0.05;;;17.70;99.90;;;;;;5115274;28;20180;-58
2022/06/11 02:00:34;;;;;;;0.10;0.10;;;17.70;99.90;;;;;;5116406;28;20653;-60
2022/06/11 02:03:03;;;;;;;0.17;0.10;;;17.60;99.90;;;;;;5116203;28;20649;-58
2022/06/11 02:05:37;;;;;;;0.08;0.08;;;17.60;99.90;;;;;;5116194;28;20271;-58
2022/06/11 02:08:22;;;;;;;0.30;0.17;;;17.60;99.90;;;;;;5116315;28;20173;-58
2022/06/11 02:11:04;;;;;;;0.00;0.00;;;17.60;99.90;;;;;;5115684;28;20637;-58
2022/06/11 02:13:44;;;;;;;0.28;0.28;;;17.60;99.90;;;;;;5115985;28;20682;-58
2022/06/11 02:16:19;;;;;;;0.10;0.10;;;17.60;99.90;;;;;;5115956;28;20169;-58
2022/06/11 02:18:48;;;;;;;0.05;0.05;;;17.60;99.90;;;;;;5116127;27;20252;-58
2022/06/11 02:21:19;;;;;;;0.10;0.10;;;17.50;99.90;;;;;;5115865;28;20526;-58
2022/06/11 02:23:51;;;;;;;0.17;0.17;;;17.50;99.90;;;;;;5115731;28;20200;-58
2022/06/11 02:26:22;;;;;;;0.50;0.20;;;17.50;99.90;;;;;;5115992;28;20594;-58
2022/06/11 02:28:50;;;;;;;0.30;0.10;;;17.50;99.90;;;;;;5115916;28;20173;-58
2022/06/11 02:31:23;;;;;;;0.10;0.10;;;17.50;99.90;;;;;;5115787;28;20665;-58
2022/06/11 02:33:49;;;;;;;0.35;0.35;;;17.50;99.90;;;;;;5115699;28;20177;-57
2022/06/11 02:36:21;;;;;;;0.10;0.10;;;17.60;99.90;;;;;;5115743;28;20519;-57
2022/06/11 02:38:47;;;;;;;0.43;0.20;;;17.60;99.90;;;;;;5115724;28;20230;-58
2022/06/11 02:41:20;;;;;;;0.20;0.20;;;17.60;99.90;;;;;;5115613;28;20174;-58
2022/06/11 02:43:47;;;;;;;0.00;0.00;;;17.60;99.90;;;;;;5115502;28;20201;-58
2022/06/11 02:48:58;;;;;;;0.10;0.10;;;17.50;99.90;;;;;;5114604;28;20188;-58
2022/06/11 02:51:27;;;;;;;0.52;0.30;;;17.50;99.90;;;;;;5115469;28;20185;-58
2022/06/11 02:53:53;;;;;;;0.10;0.10;;;17.50;99.90;;;;;;5113769;28;20269;-57
2022/06/11 02:56:20;;;;;;;0.10;0.10;;;17.50;99.90;;;;;;5115288;28;20177;-58
2022/06/11 02:58:46;;;;;;;0.10;0.10;;;17.50;99.90;;;;;;5113946;28;20622;-58
2022/06/11 03:01:11;;;;;;;0.25;0.20;;;17.40;99.90;;;;;;5114999;28;20173;-58
2022/06/11 03:03:37;;;;;;;0.20;0.20;;;17.50;99.90;;;;;;5114915;28;20250;-58
2022/06/11 03:06:04;;;;;;;0.20;0.20;;;17.40;99.90;;;;;;5115163;28;20194;-58
2022/06/11 03:08:31;;;;;;;0.10;0.10;;;17.40;99.90;;;;;;5115170;28;20260;-58
2022/06/11 03:10:57;;;;;;;0.10;0.10;;;17.30;99.90;;;;;;5114991;28;20180;-58
2022/06/11 03:13:24;;;;;;;0.52;0.28;;;17.30;99.90;;;;;;5114860;28;20202;-58
2022/06/11 03:15:50;;;;;;;0.17;0.17;;;17.30;99.90;;;;;;5114774;28;20173;-58
2022/06/11 03:18:16;;;;;;;0.00;0.00;;;17.30;99.90;;;;;;5115002;28;20169;-58
2022/06/11 03:20:43;;;;;;;0.20;0.20;;;17.30;99.90;;;;;;5114906;28;20197;-59
2022/06/11 03:23:09;;;;;;;0.10;0.10;;;17.30;99.90;;;;;;5114961;28;20246;-58
2022/06/11 03:25:36;;;;;;;0.20;0.20;;;17.20;99.90;;;;;;5115012;28;20177;-58
2022/06/11 03:28:12;;;;;;;0.10;0.10;;;17.20;99.90;;;;;;5113460;28;20320;-58
2022/06/11 03:30:38;;;;;;;0.00;0.00;;;17.10;99.90;;;;;;5114497;28;20638;-58
2022/06/11 03:33:06;;;;;;;0.08;0.08;;;17.00;99.90;;;;;;5113300;28;20178;-57
2022/06/11 03:35:32;;;;;;;0.00;0.00;;;17.00;99.90;;;;;;5114377;28;20173;-58
2022/06/11 03:37:58;;;;;;;0.30;0.20;;;17.00;99.90;;;;;;5113213;28;20189;-58
2022/06/11 03:40:24;;;;;;;0.40;0.40;;;16.90;99.90;;;;;;5114406;28;20174;-58
2022/06/11 03:42:50;;;;;;;0.22;0.20;;;16.90;99.90;;;;;;5112899;28;20561;-58
2022/06/11 03:45:17;;;;;;;0.75;0.20;;;16.90;99.90;;;;;;5113048;28;20183;-58
2022/06/11 03:47:43;;;;;;;0.10;0.10;;;16.80;99.90;;;;;;5114705;28;20221;-58
2022/06/11 03:50:20;;;;;;;0.20;0.20;;;16.80;99.90;;;;;;5114316;28;20192;-58
2022/06/11 03:52:46;;;;;;;0.98;0.10;;;16.90;99.90;;;;;;5114247;28;20661;-58
2022/06/11 03:55:12;;;;;;;0.10;0.10;;;16.90;99.90;;;;;;5114116;28;20173;-58
2022/06/11 03:57:38;;;;;;;0.05;0.05;;;16.80;99.90;;;;;;5113958;28;20169;-58
2022/06/11 04:00:07;;;;;;;0.10;0.10;;;16.80;99.90;;;;;;5095925;28;20175;-58
2022/06/11 04:02:33;;;;;;;0.20;0.20;;;16.80;99.90;;;;;;5114117;28;20569;-58
2022/06/11 04:04:59;;;;;;;0.40;0.20;;;16.80;99.90;;;;;;5113224;28;20258;-58
2022/06/11 04:07:24;;;;;;;0.30;0.10;;;16.80;99.90;;;;;;5112527;28;20193;-58
2022/06/11 04:09:50;;;;;;;0.20;0.20;;;16.90;99.90;;;;;;5112611;28;20173;-58
2022/06/11 04:12:16;;;;;;;0.08;0.08;;;16.80;99.90;;;;;;5113760;28;20179;-58
2022/06/11 04:14:44;;;;;;;0.28;0.28;;;16.80;99.90;;;;;;5112784;28;20188;-58
2022/06/11 04:17:19;;;;;;;0.20;0.20;;;16.80;99.90;;;;;;5113904;28;20169;-58
2022/06/11 04:19:48;;;;;;;0.20;0.20;;;16.80;99.90;;;;;;5113767;28;20176;-58
2022/06/11 04:22:15;;;;;;;0.30;0.30;;;16.80;99.90;;;;;;5113739;28;20173;-58
2022/06/11 04:24:41;;;;;;;0.17;0.17;;;16.80;99.90;;;;;;5113481;28;20197;-57
2022/06/11 04:27:10;;;;;;;0.98;0.50;;;16.70;99.90;;;;;;5112503;28;20199;-58
2022/06/11 04:29:39;;;;;;;0.25;0.25;;;16.70;99.90;;;;;;5113755;28;20169;-58
2022/06/11 04:32:07;;;;;;;0.10;0.10;;;16.80;99.90;;;;;;5113723;28;20169;-58
2022/06/11 04:34:34;;;;;;;0.20;0.20;;;16.90;99.90;;;;;;5113609;28;20201;-58
2022/06/11 04:37:00;;;;;;;0.20;0.20;;;16.90;99.90;;;;;;5113461;28;20173;-58
2022/06/11 04:39:29;;;;;;;0.10;0.10;;;16.90;99.90;;;;;;5112472;28;20254;-57
2022/06/11 04:41:56;;;;;;;1.00;0.10;;;17.00;99.90;;;;;;5113731;28;20165;-58
2022/06/11 04:44:22;;;;;;;0.35;0.35;;;17.00;99.90;;;;;;5113520;28;20279;-58
2022/06/11 04:46:48;;;;;;;0.10;0.10;;;17.00;99.90;;;;;;5112406;28;20234;-58
2022/06/11 04:49:14;;;;;;;0.55;0.20;;;16.90;99.90;;;;;;5113485;28;20174;-58
2022/06/11 04:51:40;;;;;;;0.10;0.05;;;16.90;99.90;;;;;;5112103;28;20511;-58
2022/06/11 04:54:07;;;;;;;0.00;0.00;;;16.90;99.90;;;;;;5112452;28;20207;-58
2022/06/11 04:56:33;;;;;;;0.10;0.10;;;16.80;99.90;;;;;;5113610;28;20176;-58
2022/06/11 04:58:59;;;;;;;0.52;0.10;;;16.80;99.90;;;;;;5112278;28;20169;-58
2022/06/11 05:01:25;;;;;;;0.15;0.10;;;16.70;99.90;;;;;;5113428;28;20665;-58
2022/06/11 05:03:51;;;;;;;0.10;0.10;;;16.70;99.90;;;;;;5113315;28;20208;-58
2022/06/11 05:06:21;;;;;;;0.03;0.03;;;16.70;99.90;;;;;;5111838;28;20201;-58
2022/06/11 05:08:47;;;;;;;0.05;0.00;;;16.80;99.90;;;;;;5113697;28;20513;-58
2022/06/11 05:11:13;;;;;;;0.75;0.43;;;16.80;99.90;;;;;;5113722;28;20694;-58
2022/06/11 05:13:40;;;;;;;0.00;0.00;;;16.80;99.90;;;;;;5112226;28;20310;-58
2022/06/11 05:16:06;;;;;;;0.00;0.00;;;16.80;99.90;;;;;;5113687;28;20657;-59
2022/06/11 05:18:33;;;;;;;0.03;0.03;;;16.90;99.90;;;;;;5117116;28;20173;-58
2022/06/11 05:21:00;;;;;;;0.10;0.10;;;16.90;99.90;;;;;;5116934;28;20261;-58
2022/06/11 05:23:26;;;;;;;0.22;0.17;;;17.00;99.90;;;;;;5115830;28;20622;-58
2022/06/11 05:25:52;;;;;;;0.55;0.20;;;17.00;99.90;;;;;;5117112;28;20201;-58
2022/06/11 05:28:24;;;;;;;0.00;0.00;;;17.00;99.90;;;;;;5115803;28;20180;-60
2022/06/11 05:30:52;;;;;;;0.20;0.15;;;17.10;99.90;;;;;;5116981;28;20248;-59
2022/06/11 05:33:18;;;;;;;0.10;0.10;;;17.30;99.90;;;;;;5115411;28;20213;-60
2022/06/11 05:35:45;;;;;;;0.10;0.10;;;17.50;99.90;;;;;;5115946;28;20234;-59
2022/06/11 05:38:15;;;;;;;0.00;0.00;;;17.50;99.90;;;;;;5116642;28;20158;-59
2022/06/11 05:40:43;;;;;;;0.00;0.00;;;17.60;99.90;;;;;;5116873;28;20171;-59
2022/06/11 05:43:09;;;;;;;1.02;0.20;;;17.60;99.90;;;;;;5116545;28;20173;-59
2022/06/11 05:45:41;;;;;;;0.08;0.08;;;17.60;99.90;;;;;;5116456;28;20181;-62
2022/06/11 05:48:08;;;;;;;0.50;0.20;;;17.60;99.90;;;;;;5116563;28;20631;-59
2022/06/11 05:50:37;;;;;;;0.00;0.00;;;17.60;99.90;;;;;;5116622;28;20162;-59
2022/06/11 05:53:05;;;;;;;0.05;0.05;;;17.60;99.90;;;;;;5116610;28;20201;-59
2022/06/11 05:55:34;;;;;;;0.10;0.10;;;17.60;99.90;;;;;;5116358;28;20169;-59
2022/06/11 05:58:03;;;;;;;0.05;0.05;;;17.60;99.90;;;;;;5116583;28;20685;-59
2022/06/11 06:00:30;;;;;;;0.10;0.10;;;17.60;99.90;;;;;;5116138;28;20172;-59
2022/06/11 06:02:56;;;;;;;0.13;0.13;;;17.60;99.90;;;;;;5116101;28;20196;-60
2022/06/11 06:05:25;;;;;;;0.00;0.00;;;17.70;99.90;;;;;;5116202;28;20647;-59
2022/06/11 06:07:51;;;;;;;0.28;0.00;;;17.70;99.90;;;;;;5116168;28;20670;-59
2022/06/11 06:10:18;;;;;;;0.10;0.10;;;17.60;99.90;;;;;;5096557;28;20181;-59
2022/06/11 06:12:43;;;;;;;0.70;0.50;;;17.60;99.90;;;;;;5114024;28;20182;-59
2022/06/11 06:15:14;;;;;;;0.10;0.00;;;17.60;99.90;;;;;;5115395;28;20196;-59
2022/06/11 06:17:41;;;;;;;0.10;0.10;;;17.80;99.90;;;;;;5115679;28;20992;-59
2022/06/11 06:20:10;;;;;;;0.32;0.13;;;17.80;99.90;;;;;;5115782;28;20260;-59
2022/06/11 06:22:36;;;;;;;0.00;0.00;;;18.00;99.90;;;;;;5115568;28;20646;-62
2022/06/11 06:25:02;;;;;;;0.32;0.22;;;18.10;99.90;;;;;;5113413;28;20208;-59
2022/06/11 06:27:28;;;;;;;0.10;0.10;;;18.20;99.90;;;;;;5114231;28;20203;-59
2022/06/11 06:29:54;;;;;;;0.10;0.10;;;18.10;99.90;;;;;;5113497;28;20166;-59
2022/06/11 06:32:20;;;;;;;0.88;0.20;;;18.10;99.90;;;;;;5112551;28;20181;-61
2022/06/11 06:34:46;;;;;;;0.22;0.13;;;18.10;99.90;;;;;;5111666;28;20185;-60
2022/06/11 06:37:12;;;;;;;0.10;0.10;;;18.10;99.90;;;;;;5112994;28;20700;-59
2022/06/11 06:39:38;;;;;;;0.38;0.30;;;18.10;99.90;;;;;;5114042;28;20180;-59
2022/06/11 06:42:06;;;;;;;0.00;0.00;;;18.10;99.90;;;;;;5114180;28;20174;-60
2022/06/11 06:44:32;;;;;;;0.77;0.10;;;18.20;99.90;;;;;;5113558;28;20204;-59
2022/06/11 06:46:58;;;;;;;0.25;0.22;;;18.30;99.90;;;;;;5113873;28;20191;-59
2022/06/11 06:49:23;;;;;;;0.05;0.05;;;18.50;99.90;;;;;;5113966;28;20185;-59
2022/06/11 06:51:49;;;;;;;0.05;0.05;;;18.70;99.90;;;;;;5115209;28;20200;-59
2022/06/11 06:54:15;;;;;;;0.08;0.08;;;18.90;99.90;;;;;;5114076;28;20264;-57
2022/06/11 06:56:41;;;;;;;0.10;0.10;;;19.00;99.90;;;;;;5114075;28;20185;-59
2022/06/11 06:59:06;;;;;;;0.40;0.40;;;18.90;99.90;;;;;;5113873;28;20179;-57
2022/06/11 07:01:33;;;;;;;0.47;0.47;;;18.70;99.90;;;;;;5113877;28;20204;-57
2022/06/11 07:03:59;;;;;;;0.20;0.20;;;18.70;99.90;;;;;;5115015;28;20293;-57
2022/06/11 07:06:25;;;;;;;0.05;0.05;;;18.70;99.90;;;;;;5114999;28;20201;-57
2022/06/11 07:08:53;;;;;;;0.98;0.20;;;18.80;99.90;;;;;;5114876;28;20179;-56
2022/06/11 07:11:19;;;;;;;0.22;0.20;;;18.90;99.90;;;;;;5113592;28;20177;-58
2022/06/11 07:13:45;;;;;;;0.05;0.05;;;19.10;99.90;;;;;;5114999;28;20173;-59
2022/06/11 07:16:14;;;;;;;1.27;0.40;;;19.20;99.90;;;;;;5115331;28;20240;-59
2022/06/11 07:18:44;;;;;;;0.10;0.10;;;19.40;99.90;;;;;;5113603;28;20232;-58
2022/06/11 07:21:35;;;;;;;0.00;0.00;;;19.70;99.90;;;;;;5115051;28;20165;-59
2022/06/11 07:24:07;;;;;;;0.10;0.10;;;19.60;99.90;;;;;;5114324;28;20209;-58
2022/06/11 07:26:37;;;;;;;0.73;0.20;;;19.40;99.90;;;;;;5114281;28;20233;-59
2022/06/11 07:29:11;;;;;;;0.32;0.10;;;19.30;99.90;;;;;;5114488;28;20170;-59
2022/06/11 07:31:39;;;;;;;0.10;0.10;;;19.30;99.90;;;;;;5114561;28;20175;-59
2022/06/11 07:34:05;;;;;;;0.17;0.17;;;19.20;99.90;;;;;;5112712;28;20165;-59
2022/06/11 07:36:32;;;;;;;0.30;0.22;;;19.40;99.90;;;;;;5114553;28;20189;-59
2022/06/11 07:38:57;;;;;;;0.00;0.00;;;19.60;99.90;;;;;;5113498;28;20518;-59
2022/06/11 07:41:23;;;;;;;0.17;0.00;;;19.70;99.90;;;;;;5113122;28;20172;-59
2022/06/11 07:43:49;;;;;;;0.35;0.30;;;19.90;99.90;;;;;;5112807;28;20286;-59
2022/06/11 07:46:14;;;;;;;0.60;0.15;;;20.00;99.90;;;;;;5112597;28;20264;-59
2022/06/11 07:48:41;;;;;;;0.10;0.10;;;20.00;99.90;;;;;;5112106;28;20191;-60
2022/06/11 07:51:07;;;;;;;0.22;0.17;;;20.20;99.90;;;;;;5114046;28;20197;-60
2022/06/11 07:53:33;;;;;;;0.17;0.10;;;20.50;99.90;;;;;;5114203;28;20215;-60
2022/06/11 07:55:59;;;;;;;0.10;0.10;;;20.50;99.90;;;;;;5114093;28;20634;-59
2022/06/11 07:58:30;;;;;;;0.15;0.15;;;20.50;99.90;;;;;;5114033;28;20173;-59
2022/06/11 08:00:57;;;;;;;0.40;0.30;;;20.40;99.90;;;;;;5112841;28;20174;-59
2022/06/11 08:03:23;;;;;;;0.10;0.10;;;20.40;99.90;;;;;;5112659;28;20219;-59
2022/06/11 08:05:50;;;;;;;1.40;1.30;;;20.50;99.90;;;;;;5113871;28;20197;-59
2022/06/11 08:08:17;;;;;;;0.63;0.20;;;20.30;99.90;;;;;;5114162;28;20181;-59
2022/06/11 08:10:43;;;;;;;0.60;0.45;;;20.20;99.90;;;;;;5114140;28;20165;-60
2022/06/11 08:13:10;;;;;;;0.00;0.00;;;20.40;99.90;;;;;;5112766;28;20630;-59
2022/06/11 08:15:37;;;;;;;0.00;0.00;;;20.60;99.90;;;;;;5113817;28;20181;-59
2022/06/11 08:18:04;;;;;;;0.05;0.05;;;20.60;99.90;;;;;;5113719;28;20244;-59
2022/06/11 08:20:31;;;;;;;0.32;0.32;;;20.90;99.90;;;;;;5113695;28;20200;-60
2022/06/11 08:22:58;;;;;;;0.10;0.10;;;20.90;99.90;;;;;;5113809;28;20271;-59
2022/06/11 08:25:24;;;;;;;0.43;0.43;;;21.00;99.90;;;;;;5113844;28;20173;-59
2022/06/11 08:27:51;;;;;;;0.20;0.20;;;21.10;99.90;;;;;;5112471;28;20234;-59
2022/06/11 08:30:20;;;;;;;0.22;0.22;;;21.20;99.90;;;;;;5113697;28;20173;-61
2022/06/11 08:32:46;;;;;;;0.10;0.10;;;21.20;99.90;;;;;;5113603;28;20169;-60
2022/06/11 08:35:14;;;;;;;0.08;0.08;;;21.10;99.90;;;;;;5113823;28;20181;-59
2022/06/11 08:37:40;;;;;;;0.15;0.10;;;21.00;99.90;;;;;;5113787;28;20177;-61
2022/06/11 08:40:10;;;;;;;0.10;0.10;;;20.90;99.90;;;;;;5113717;28;20264;-58
2022/06/11 08:42:39;;;;;;;0.00;0.00;;;21.00;99.90;;;;;;5113259;28;20215;-57
2022/06/11 08:45:19;;;;;;;0.30;0.20;;;21.20;99.90;;;;;;5113261;28;20193;-59
2022/06/11 08:47:55;;;;;;;0.08;0.08;;;21.30;99.90;;;;;;5113587;28;20251;-59
2022/06/11 08:50:32;;;;;;;0.00;0.00;;;21.60;99.90;;;;;;5112858;28;20174;-61
2022/06/11 08:52:58;;;;;;;0.03;0.00;;;21.80;99.90;;;;;;5116245;28;20188;-59
2022/06/11 08:55:32;;;;;;;0.00;0.00;;;22.00;99.90;;;;;;5116594;28;20185;-60
2022/06/11 08:58:16;;;;;;;0.10;0.10;;;22.20;99.90;;;;;;5117597;28;20255;-61
2022/06/11 09:00:46;;;;;;;0.20;0.20;;;22.30;99.90;;;;;;5117264;28;20234;-59
2022/06/11 09:03:24;;;;;;;0.30;0.30;;;22.20;99.90;;;;;;5117259;28;20176;-59
2022/06/11 09:06:21;;;;;;;0.13;0.13;;;22.30;99.90;;;;;;5115684;28;20263;-60
2022/06/11 09:09:05;;;;;;;0.03;0.03;;;22.30;99.90;;;;;;5117392;28;20180;-59
2022/06/11 09:11:40;;;;;;;0.38;0.38;;;22.20;99.90;;;;;;5117597;28;20622;-60
2022/06/11 09:14:09;;;;;;;0.52;0.52;;;22.40;99.90;;;;;;5116878;28;20169;-60
2022/06/11 09:17:27;;;;;;;0.25;0.22;;;22.50;99.90;;;;;;5117018;28;20248;-59
2022/06/11 09:20:09;;;;;;;0.10;0.10;;;22.80;99.90;;;;;;5053827;28;20183;-60
2022/06/11 09:22:44;;;;;;;0.10;0.10;;;23.10;99.90;;;;;;5096413;28;20180;-58
2022/06/11 09:25:32;;;;;;;0.00;0.00;;;23.30;99.90;;;;;;5096640;28;20205;-58
2022/06/11 09:28:11;;;;;;;0.00;0.00;;;23.20;99.90;;;;;;5096671;28;20257;-59
2022/06/11 09:30:41;;;;;;;0.10;0.10;;;22.80;99.90;;;;;;5096421;28;20256;-58
2022/06/11 09:33:21;;;;;;;0.00;0.00;;;22.60;99.90;;;;;;5096213;28;20577;-59
2022/06/11 09:36:04;;;;;;;0.17;0.13;;;22.90;99.90;;;;;;5096544;28;20178;-58
2022/06/11 09:38:39;;;;;;;0.10;0.10;;;23.20;99.90;;;;;;5110435;28;20178;-59
2022/06/11 09:41:21;;;;;;;0.30;0.15;;;23.20;99.90;;;;;;5116514;28;20169;-59
2022/06/11 09:44:09;;;;;;;0.93;0.43;;;23.40;99.90;;;;;;5116342;28;20201;-59
2022/06/11 09:46:52;;;;;;;0.10;0.10;;;23.30;99.90;;;;;;5116650;28;20185;-60
2022/06/11 09:49:25;;;;;;;0.00;0.00;;;23.40;99.90;;;;;;5116346;28;20173;-60
2022/06/11 09:52:05;;;;;;;1.55;0.30;;;23.50;99.90;;;;;;5114983;28;20173;-59
2022/06/11 09:54:53;;;;;;;0.00;0.00;;;23.80;99.90;;;;;;5116657;28;20173;-61
2022/06/11 09:57:21;;;;;;;0.03;0.00;;;23.60;99.50;;;;;;5114980;28;20169;-57
2022/06/11 09:59:58;;;;;;;0.10;0.10;;;23.50;99.90;;;;;;5116598;28;20254;-58
2022/06/11 10:03:29;;;;;;;0.03;0.03;;;23.80;99.90;;;;;;5114986;28;20169;-57
2022/06/11 10:06:00;;;;;;;0.17;0.10;;;23.70;99.90;;;;;;5112816;28;20185;-59
2022/06/11 10:08:38;;;;;;;0.08;0.08;;;23.60;99.90;;;;;;5115942;28;20630;-58
2022/06/11 10:11:09;;;;;;;0.00;0.00;;;23.80;99.90;;;;;;5115921;28;20173;-59
2022/06/11 10:13:47;;;;;;;0.17;0.10;;;23.80;99.90;;;;;;5114864;28;20215;-59
2022/06/11 10:16:27;;;;;;;0.03;0.03;;;23.70;99.90;;;;;;5115904;28;20188;-59
2022/06/11 10:18:58;;;;;;;0.30;0.10;;;24.00;99.90;;;;;;5115624;28;20197;-58
2022/06/11 10:21:28;;;;;;;0.30;0.10;;;23.90;99.90;;;;;;5116303;28;20759;-59
2022/06/11 10:23:58;;;;;;;0.10;0.10;;;23.70;99.90;;;;;;5115734;28;20257;-58
2022/06/11 10:26:36;;;;;;;0.00;0.00;;;23.50;99.90;;;;;;5115727;28;20615;-58
2022/06/11 10:29:23;;;;;;;0.00;0.00;;;23.80;99.90;;;;;;5115735;28;20173;-60
2022/06/11 10:32:14;;;;;;;0.00;0.00;;;23.90;99.80;;;;;;5115488;28;20565;-60
2022/06/11 10:34:44;;;;;;;0.13;0.13;;;24.10;99.90;;;;;;5115003;28;20222;-59
2022/06/11 10:37:35;;;;;;;0.00;0.00;;;24.10;99.90;;;;;;5115500;28;20500;-59
2022/06/11 10:40:16;;;;;;;0.20;0.20;;;24.10;99.90;;;;;;5104412;28;20215;-59
2022/06/11 10:42:53;;;;;;;0.20;0.10;;;24.10;99.90;;;;;;5115557;28;20177;-59
2022/06/11 10:45:20;;;;;;;0.00;0.00;;;24.30;99.90;;;;;;5115227;28;20241;-59
2022/06/11 10:47:48;;;;;;;0.22;0.10;;;24.50;99.90;;;;;;5115327;28;20218;-59
2022/06/11 10:50:24;;;;;;;0.00;0.00;;;24.50;99.90;;;;;;5114907;28;20210;-58
2022/06/11 10:53:34;;;;;;;0.00;0.00;;;24.20;99.80;;;;;;5115466;28;20218;-58
2022/06/11 10:56:05;;;;;;;0.10;0.10;;;24.40;99.90;;;;;;5052036;28;20187;-60
2022/06/11 10:58:38;;;;;;;0.08;0.08;;;24.40;99.90;;;;;;5104627;28;20219;-62
2022/06/11 11:01:10;;;;;;;0.55;0.20;;;24.60;99.90;;;;;;5114952;28;20249;-59
2022/06/11 11:03:49;;;;;;;0.35;0.10;;;24.60;99.90;;;;;;5114869;28;20203;-59
2022/06/11 11:06:26;;;;;;;0.10;0.10;;;24.60;99.90;;;;;;5114736;28;20238;-59
2022/06/11 11:09:01;;;;;;;0.20;0.20;;;24.70;99.90;;;;;;5114475;28;20169;-60
2022/06/11 11:11:36;;;;;;;0.10;0.10;;;24.20;98.50;;;;;;5113515;28;20169;-59
2022/06/11 11:14:26;;;;;;;0.05;0.05;;;24.00;99.90;;;;;;5114650;28;20169;-59
2022/06/11 11:16:52;;;;;;;0.00;0.00;;;24.20;99.90;;;;;;5114730;28;20169;-60
2022/06/11 11:19:27;;;;;;;0.10;0.10;;;24.50;99.80;;;;;;5114270;28;20267;-60
2022/06/11 11:21:57;;;;;;;0.10;0.00;;;24.60;99.90;;;;;;5114493;28;20175;-61
2022/06/11 11:24:37;;;;;;;0.00;0.00;;;24.70;98.60;;;;;;5114553;28;20701;-59
2022/06/11 11:27:06;;;;;;;0.10;0.10;;;24.60;99.60;;;;;;5094096;28;20174;-59
2022/06/11 11:29:35;;;;;;;0.00;0.00;;;24.60;99.90;;;;;;5110327;28;20179;-59
2022/06/11 11:32:09;;;;;;;0.10;0.10;;;24.70;99.80;;;;;;5114390;28;20178;-59
2022/06/11 11:34:48;;;;;;;0.00;0.00;;;24.90;99.20;;;;;;5114687;28;20181;-60
2022/06/11 11:37:14;;;;;;;0.10;0.00;;;24.80;99.20;;;;;;5114290;28;20237;-59
2022/06/11 11:39:50;;;;;;;0.00;0.00;;;24.80;99.20;;;;;;5114284;28;20169;-59
2022/06/11 11:42:38;;;;;;;0.00;0.00;;;24.70;98.80;;;;;;5114079;28;20203;-59
2022/06/11 11:45:26;;;;;;;0.00;0.00;;;24.90;98.70;;;;;;5114120;28;20581;-59
2022/06/11 11:47:59;;;;;;;0.00;0.00;;;25.00;98.90;;;;;;5114341;28;20173;-60
2022/06/11 11:50:33;;;;;;;0.10;0.10;;;25.10;99.20;;;;;;5113634;28;20173;-59
2022/06/11 11:53:21;;;;;;;0.13;0.10;;;25.10;99.30;;;;;;5112948;28;20165;-59
2022/06/11 11:56:01;;;;;;;0.20;0.10;;;25.10;98.70;;;;;;5112876;28;20177;-59
2022/06/11 11:58:34;;;;;;;0.10;0.10;;;25.20;98.70;;;;;;5103585;28;20196;-59
2022/06/11 12:01:15;;;;;;;0.35;0.25;;;24.80;98.20;;;;;;5113719;28;20680;-61
2022/06/11 12:03:59;;;;;;;0.00;0.00;;;24.30;99.90;;;;;;5113972;28;20189;-58
2022/06/11 12:06:36;;;;;;;0.10;0.10;;;24.10;99.90;;;;;;5113923;28;20189;-59
2022/06/11 12:09:06;;;;;;;0.08;0.08;;;24.20;99.90;;;;;;5112441;28;20196;-59
2022/06/11 12:11:35;;;;;;;0.20;0.10;;;24.50;99.90;;;;;;5113695;28;20170;-60
2022/06/11 12:14:11;;;;;;;0.10;0.10;;;24.70;99.20;;;;;;5113591;28;20180;-59
2022/06/11 12:16:41;;;;;;;0.10;0.00;;;25.00;99.80;;;;;;5113764;28;20173;-59
2022/06/11 12:19:13;;;;;;;0.00;0.00;;;25.10;99.80;;;;;;5113644;28;20173;-59
2022/06/11 12:21:42;;;;;;;0.45;0.30;;;25.40;99.20;;;;;;5113250;28;20226;-59
2022/06/11 12:24:14;;;;;;;0.08;0.00;;;25.20;99.60;;;;;;5112860;28;20208;-60
2022/06/11 12:26:52;;;;;;;0.00;0.00;;;24.90;98.90;;;;;;5113181;28;20169;-59
2022/06/11 12:29:36;;;;;;;0.22;0.13;;;25.10;99.40;;;;;;5113884;28;20175;-59
2022/06/11 12:32:18;;;;;;;0.10;0.10;;;24.80;98.40;;;;;;5113974;28;20259;-59
2022/06/11 12:34:45;;;;;;;0.00;0.00;;;24.40;99.90;;;;;;5113894;28;20176;-60
2022/06/11 12:37:52;;;;;;;0.10;0.10;;;24.20;99.90;;;;;;5113958;28;20176;-59
2022/06/11 12:40:44;;;;;;;0.00;0.00;;;24.10;99.90;;;;;;5083381;28;20189;-58
2022/06/11 12:43:22;;;;;;;0.00;0.00;;;23.90;99.90;;;;;;5113577;28;20165;-58
2022/06/11 12:46:14;;;;;;;0.10;0.10;;;23.70;99.90;;;;;;5113702;28;20181;-58
2022/06/11 12:48:50;;;;;;;0.13;0.13;;;23.80;99.90;;;;;;5104146;28;20177;-58
2022/06/11 12:51:22;;;;;;;0.08;0.08;;;24.20;99.90;;;;;;5112326;28;20522;-58
2022/06/11 12:53:59;;;;;;;0.00;0.00;;;24.50;99.90;;;;;;5113747;28;20178;-58
2022/06/11 12:56:34;;;;;;;0.10;0.10;;;24.50;99.90;;;;;;5113552;28;20176;-58
2022/06/11 12:59:21;;;;;;;0.03;0.03;;;24.20;99.90;;;;;;5113498;28;20256;-59
2022/06/11 13:02:19;;;;;;;0.10;0.10;;;24.30;99.90;;;;;;5113651;28;20177;-58
2022/06/11 13:05:00;;;;;;;0.30;0.10;;;24.00;99.90;;;;;;5078812;28;20221;-58
2022/06/11 13:07:39;;;;;;;0.10;0.10;;;24.00;99.90;;;;;;5111908;28;20553;-58
2022/06/11 13:10:42;;;;;;;0.03;0.03;;;24.20;99.90;;;;;;5113520;28;20230;-58
2022/06/11 13:13:19;;;;;;;0.20;0.20;;;24.70;99.90;;;;;;5113281;28;20168;-59
2022/06/11 13:15:57;;;;;;;0.00;0.00;;;24.60;99.90;;;;;;5113371;28;20184;-58
2022/06/11 13:18:25;;;;;;;0.00;0.00;;;24.80;99.90;;;;;;5113367;28;20169;-58